Latest Weather Observations for Mount Crawford

IDS60901

Issued at 3:51 am CST Wednesday 4 May 2016 (issued every 10 minutes, with the page automatically refreshed every 10 minutes)

About weather observations | Map of Adelaide area stations | Latest observations for Adelaide area | Other Formats
Station Details ID: 023878 Name: MOUNT CRAWFORD AWS Lat: -34.73 Lon: 138.93 Height: 525.0 m
Data from the previous 72 hours. | See also: Recent months at Mount Crawford
Date/Time
CST
Tmp

°C
App
Tmp
°C
Dew
Point
°C
Rel
Hum
%
Delta-T

°C
Wind Press
QNH
hPa
Press
MSL
hPa
Rain
since
9 am
mm
Dir
 
Spd
km/h
Gust
km/h
Spd
kts
Gust
kts
04/03:30am 9.8 4.9 9.8 100 0.0 W 26 35 14 19 1013.3 1012.9 4.4
04/03:00am 9.9 5.4 9.9 100 0.0 W 24 32 13 17 1013.3 1012.9 4.4
04/02:30am 9.9 6.3 9.9 100 0.0 W 19 28 10 15 1013.3 1012.9 4.4
04/02:00am 10.0 6.8 9.9 99 0.1 WSW 17 26 9 14 1013.2 1012.8 4.4
04/01:30am 10.1 6.0 10.0 99 0.1 W 22 35 12 19 1013.2 1012.8 4.4
04/01:00am 10.2 6.5 10.1 99 0.1 W 20 30 11 16 1013.2 1012.8 4.4
04/12:30am 10.3 6.2 10.1 99 0.1 W 22 32 12 17 1013.1 1012.7 4.4
04/12:00am 10.3 6.6 10.1 99 0.1 W 20 28 11 15 1013.2 1012.8 4.4
 
Date/Time
CST
Tmp

°C
App
Tmp
°C
Dew
Point
°C
Rel
Hum
%
Delta-T

°C
Wind Press
QNH
hPa
Press
MSL
hPa
Rain
since
9 am
mm
Dir
 
Spd
km/h
Gust
km/h
Spd
kts
Gust
kts
03/11:30pm 10.3 6.6 10.1 99 0.1 W 20 33 11 18 1013.2 1012.8 4.4
03/11:00pm 10.4 6.7 10.2 99 0.1 W 20 28 11 15 1013.1 1012.7 4.4
03/10:30pm 10.4 6.7 10.1 98 0.2 WSW 20 33 11 18 1013.1 1012.7 4.4
03/10:00pm 10.7 6.9 9.9 95 0.4 WSW 20 35 11 19 1012.8 1012.5 4.4
03/09:30pm 10.8 6.2 9.7 93 0.6 W 24 37 13 20 1012.7 1012.4 4.4
03/09:00pm 10.9 5.9 9.7 92 0.6 WSW 26 39 14 21 1012.4 1012.0 4.4
03/08:30pm 11.1 5.9 10.2 94 0.5 W 28 44 15 24 1012.0 1011.6 4.4
03/08:00pm 11.0 6.3 10.8 99 0.1 W 26 41 14 22 1011.8 1011.4 4.4
03/07:30pm 10.6 6.6 10.6 100 0.0 W 22 30 12 16 1011.5 1011.1 4.4
03/07:00pm 10.3 5.5 10.3 100 0.0 WSW 26 39 14 21 1011.1 1010.7 4.4
03/06:30pm 10.6 6.6 10.6 100 0.0 W 22 33 12 18 1010.5 1010.1 4.4
03/06:00pm 10.5 6.1 10.5 100 0.0 WSW 24 37 13 20 1010.1 1009.7 4.4
03/05:43pm 10.5 5.4 10.5 100 0.0 WSW 28 48 15 26 1009.7 1009.3 4.4
03/05:30pm 10.6 4.7 10.6 100 0.0 WSW 32 48 17 26 1009.5 1009.1 4.4
03/05:00pm 11.3 5.4 11.3 100 0.0 WSW 33 54 18 29 1008.6 1008.2 4.0
03/04:33pm 11.4 5.8 11.4 100 0.0 WSW 32 54 17 29 1008.4 1008.0 4.0
03/04:30pm 11.4 5.6 11.4 100 0.0 WSW 33 48 18 26 1008.5 1008.1 4.0
03/04:00pm 11.9 6.2 11.9 100 0.0 W 33 54 18 29 1007.8 1007.4 3.4
03/03:30pm 11.9 5.1 11.9 100 0.0 W 39 65 21 35 1007.2 1006.7 2.4
03/03:02pm 12.1 5.3 12.1 100 0.0 W 39 65 21 35 1006.6 1006.2 2.4
03/03:00pm 12.1 5.3 12.1 100 0.0 W 39 56 21 30 1006.7 1006.3 2.2
03/02:30pm 11.5 3.8 11.5 100 0.0 W 43 69 23 37 1006.7 1006.3 1.8
03/02:00pm 14.0 6.3 12.2 89 1.0 W 44 69 24 37 1005.6 1005.1 1.2
03/01:31pm 13.3 6.6 13.3 100 0.0 WNW 41 59 22 32 1005.9 1005.4 1.2
03/01:30pm 13.3 6.6 13.3 100 0.0 WNW 41 57 22 31 1006.0 1005.6 1.2
03/01:00pm 13.7 6.6 13.5 99 0.1 W 43 63 23 34 1005.8 1005.3 1.2
03/12:30pm 13.5 6.2 13.5 100 0.0 W 44 67 24 36 1006.1 1005.7 1.2
03/12:00pm 13.0 6.2 13.0 100 0.0 W 41 61 22 33 1006.3 1005.9 1.0
03/11:30am 12.7 4.4 12.7 100 0.0 W 48 74 26 40 1006.1 1005.7 1.0
03/11:00am 12.7 4.4 12.7 100 0.0 W 48 72 26 39 1006.1 1005.7 0.8
03/10:30am 12.6 5.1 12.6 100 0.0 WNW 44 69 24 37 1006.0 1005.6 0.6
03/10:00am 12.1 4.6 12.1 100 0.0 WNW 43 80 23 43 1006.1 1005.7 0.6
03/09:30am 11.9 3.4 11.9 100 0.0 WNW 48 67 26 36 1005.6 1005.1 0.4
03/09:00am 11.4 3.0 11.2 99 0.1 WNW 46 69 25 37 1005.4 1004.9 0.4
03/08:30am 11.1 2.7 10.9 99 0.1 WNW 46 70 25 38 1005.7 1005.2 0.2
03/08:03am 10.9 2.4 10.7 99 0.1 WNW 46 69 25 37 1005.6 1005.1 0.2
03/08:00am 10.9 2.4 10.7 99 0.1 WNW 46 63 25 34 1005.6 1005.1 0.2
03/07:30am 11.3 3.3 10.5 95 0.4 WNW 43 74 23 40 1005.4 1004.9 0.2
03/07:00am 11.0 2.7 10.1 94 0.5 WNW 44 65 24 35 1005.3 1004.8 0.2
03/06:30am 10.8 3.0 9.9 94 0.5 WNW 41 69 22 37 1005.7 1005.2 0.2
03/06:00am 10.7 3.6 9.6 93 0.6 WNW 37 59 20 32 1005.7 1005.2 0.2
03/05:30am 10.6 3.5 9.5 93 0.6 WNW 37 56 20 30 1005.7 1005.2 0.2
03/05:05am 10.4 3.3 9.6 95 0.4 NW 37 56 20 30 1005.9 1005.4 0.2
03/05:00am 10.4 3.3 9.6 95 0.4 NW 37 54 20 29 1006.0 1005.6 0.2
03/04:35am 10.2 3.4 9.3 94 0.5 NW 35 54 19 29 1006.2 1005.8 0.2
03/04:30am 10.2 3.7 9.1 93 0.6 NW 33 50 18 27 1006.3 1005.9 0.2
03/04:00am 10.1 3.7 8.7 91 0.7 NW 32 50 17 27 1006.5 1006.1 0.2
03/03:30am 9.9 4.0 9.1 95 0.4 NW 30 48 16 26 1006.6 1006.2 0.2
03/03:00am 9.9 4.1 9.6 98 0.2 NW 30 44 16 24 1007.1 1006.6 0.2
03/02:30am 10.1 4.5 10.0 99 0.1 WNW 30 43 16 23 1007.6 1007.1 0.2
03/02:00am 10.5 4.4 10.3 99 0.1 WNW 33 43 18 23 1008.0 1007.6 0.2
03/01:30am 10.9 5.1 10.7 99 0.1 WNW 32 43 17 23 1008.4 1008.0 0.2
03/01:00am 11.6 6.6 11.0 96 0.3 WNW 28 43 15 23 1008.8 1008.4 0.2
03/12:30am 12.0 7.0 11.1 94 0.5 WNW 28 39 15 21 1009.1 1008.6 0.2
03/12:00am 12.2 6.4 10.9 92 0.7 WNW 32 44 17 24 1009.3 1008.8 0.2
 
Date/Time
CST
Tmp

°C
App
Tmp
°C
Dew
Point
°C
Rel
Hum
%
Delta-T

°C
Wind Press
QNH
hPa
Press
MSL
hPa
Rain
since
9 am
mm
Dir
 
Spd
km/h
Gust
km/h
Spd
kts
Gust
kts
02/11:30pm 12.4 5.3 10.8 90 0.9 WNW 39 59 21 32 1009.3 1008.8 0.2
02/11:07pm 12.4 5.6 10.8 90 0.9 WNW 37 56 20 30 1009.8 1009.4 0.2
02/11:00pm 12.4 5.6 10.8 90 0.9 WNW 37 48 20 26 1010.0 1009.6 0.2
02/10:30pm 12.3 6.3 10.7 90 0.9 WNW 33 46 18 25 1010.3 1009.9 0.2
02/10:00pm 12.4 6.4 10.8 90 0.9 WNW 33 46 18 25 1010.5 1010.1 0.2
02/09:30pm 12.7 6.9 10.8 88 1.0 WNW 32 48 17 26 1010.7 1010.3 0.2
02/09:00pm 12.9 6.8 10.3 84 1.4 WNW 33 43 18 23 1010.8 1010.4 0.2
02/08:30pm 13.2 7.2 10.2 82 1.6 WNW 32 43 17 23 1010.8 1010.4 0.2
02/08:00pm 13.6 8.1 10.4 81 1.7 WNW 30 44 16 24 1010.8 1010.4 0.2
02/07:31pm 13.7 8.1 10.1 79 1.9 WNW 30 48 16 26 1010.9 1010.6 0.2
02/07:30pm 13.7 8.1 10.1 79 1.9 WNW 30 39 16 21 1010.9 1010.6 0.2
02/07:00pm 14.0 7.9 9.8 76 2.2 WNW 32 44 17 24 1010.9 1010.6 0.2
02/06:30pm 13.9 7.5 9.5 75 2.3 WNW 33 46 18 25 1010.7 1010.3 0.2
02/06:00pm 14.0 8.6 9.4 74 2.4 WNW 28 39 15 21 1010.5 1010.1 0.2
02/05:30pm 14.0 7.7 9.6 75 2.3 WNW 33 43 18 23 1010.4 1010.0 0.2
02/05:00pm 13.0 7.7 11.1 88 1.0 WNW 30 43 16 23 1010.5 1010.1 0.2
02/04:30pm 12.1 6.5 11.5 96 0.3 W 32 46 17 25 1010.6 1010.2 0.0
02/04:00pm 12.9 6.3 10.1 83 1.5 W 35 61 19 33 1010.6 1010.2 0.0
02/03:36pm 14.4 6.0 9.0 70 2.8 W 43 65 23 35 1010.5 1010.1 0.0
02/03:30pm 14.4 5.8 8.8 69 2.9 W 44 61 24 33 1010.5 1010.1 0.0
02/03:00pm 14.7 7.2 9.3 70 2.9 WNW 39 61 21 33 1010.9 1010.6 0.0
02/02:30pm 13.0 4.8 9.8 81 1.7 WNW 43 63 23 34 1010.9 1010.6 0.0
02/02:00pm 14.3 7.3 8.3 67 3.1 WNW 35 57 19 31 1011.1 1010.7 0.0
02/01:38pm 14.4 6.8 7.5 63 3.5 WNW 37 57 20 31 1011.1 1010.7 0.0
02/01:30pm 14.4 6.7 7.0 61 3.7 WNW 37 52 20 28 1011.4 1011.0 0.0
02/01:00pm 14.5 7.1 6.6 59 3.9 WNW 35 56 19 30 1011.8 1011.4 0.0
02/12:30pm 15.0 7.8 7.8 62 3.7 WNW 35 56 19 30 1011.9 1011.5 0.0
02/12:00pm 13.3 6.2 8.0 70 2.7 WNW 35 54 19 29 1012.3 1011.9 0.0
02/11:30am 13.8 7.2 7.6 66 3.1 WNW 32 50 17 27 1012.9 1012.6 0.0
02/11:02am 13.6 6.3 7.2 65 3.2 WNW 35 54 19 29 1013.2 1012.8 0.0
02/11:00am 13.6 5.9 7.2 65 3.2 WNW 37 54 20 29 1013.3 1012.9 0.0
02/10:30am 13.2 6.2 7.0 66 3.1 WNW 33 54 18 29 1013.5 1013.1 0.0
02/10:26am 12.8 5.4 6.6 66 3.1 WNW 35 54 19 29 1013.4 1013.0 0.0
02/10:00am 12.6 6.4 6.2 65 3.1 WNW 28 44 15 24 1013.7 1013.3 0.0
02/09:30am 11.5 4.5 6.0 69 2.6 WNW 32 46 17 25 1013.7 1013.3 0.0
02/09:12am 11.2 4.2 5.9 70 2.5 WNW 32 54 17 29 1013.7 1013.3 0.0
02/09:00am 10.8 3.6 6.0 72 2.3 WNW 33 48 18 26 1013.7 1013.3 0.2
02/08:48am 10.5 4.3 6.1 74 2.1 WNW 28 46 15 25 1013.7 1013.3 0.2
02/08:30am 9.8 3.6 6.0 77 1.8 NW 28 39 15 21 1013.8 1013.4 0.2
02/08:00am 8.5 2.6 5.6 82 1.4 WNW 26 35 14 19 1013.7 1013.3 0.2
02/07:30am 8.3 2.7 5.6 83 1.3 NW 24 33 13 18 1013.8 1013.4 0.2
02/07:00am 8.3 3.1 5.4 82 1.3 NW 22 32 12 17 1013.5 1013.1 0.2
02/06:30am 8.8 3.2 5.5 80 1.5 NW 24 35 13 19 1013.7 1013.3 0.2
02/06:00am 9.1 3.9 5.3 77 1.8 NW 22 33 12 18 1013.8 1013.4 0.2
02/05:30am 9.3 4.1 5.3 76 1.9 NNW 22 32 12 17 1013.8 1013.4 0.2
02/05:00am 9.0 4.2 5.7 80 1.5 NW 20 28 11 15 1013.8 1013.4 0.2
02/04:30am 8.8 4.1 6.1 83 1.3 NW 20 28 11 15 1013.9 1013.5 0.2
02/04:00am 8.9 4.2 6.2 83 1.3 NW 20 30 11 16 1014.0 1013.6 0.2
02/03:30am 8.7 4.6 6.0 83 1.3 NW 17 22 9 12 1014.4 1014.1 0.2
02/03:00am 8.8 4.3 5.9 82 1.4 WNW 19 26 10 14 1014.8 1014.5 0.2
02/02:30am 9.2 4.5 5.9 80 1.6 NW 20 28 11 15 1015.2 1014.8 0.2
02/02:00am 8.9 5.1 6.0 82 1.4 NW 15 20 8 11 1015.4 1015.0 0.2
02/01:30am 9.4 4.8 5.6 77 1.8 NW 19 26 10 14 1015.9 1015.6 0.2
02/01:00am 9.4 5.1 5.4 76 1.9 NW 17 22 9 12 1016.1 1015.8 0.2
02/12:30am 9.2 5.2 5.0 75 1.9 NNW 15 20 8 11 1016.2 1015.9 0.2
02/12:00am 10.0 6.1 5.4 73 2.2 WNW 15 20 8 11 1016.3 1016.0 0.2
 
Date/Time
CST
Tmp

°C
App
Tmp
°C
Dew
Point
°C
Rel
Hum
%
Delta-T

°C
Wind Press
QNH
hPa
Press
MSL
hPa
Rain
since
9 am
mm
Dir
 
Spd
km/h
Gust
km/h
Spd
kts
Gust
kts
01/11:30pm 10.0 5.7 5.4 73 2.2 WNW 17 22 9 12 1016.6 1016.3 0.2
01/11:00pm 9.6 6.5 5.6 76 1.9 WNW 11 15 6 8 1016.9 1016.6 0.2
01/10:30pm 9.3 5.1 5.5 77 1.8 W 17 19 9 10 1017.4 1017.0 0.2
01/10:00pm 9.4 5.8 5.2 75 2.0 W 13 17 7 9 1017.5 1017.2 0.2
01/09:30pm 10.1 6.2 5.3 72 2.2 W 15 19 8 10 1017.8 1017.5 0.2
01/09:00pm 10.3 5.5 4.9 69 2.5 WNW 19 26 10 14 1017.7 1017.4 0.2
01/08:30pm 10.3 6.3 4.7 68 2.6 W 15 20 8 11 1017.6 1017.3 0.2
01/08:00pm 10.6 6.9 4.3 65 2.9 W 13 17 7 9 1017.7 1017.4 0.2
01/07:30pm 10.7 7.6 3.7 62 3.2 WNW 9 15 5 8 1017.7 1017.4 0.2
01/07:00pm 10.8 7.6 3.1 59 3.5 WNW 9 15 5 8 1017.6 1017.3 0.2
01/06:30pm 11.0 7.8 2.8 57 3.7 NW 9 13 5 7 1017.4 1017.0 0.2
01/06:00pm 10.6 7.8 2.9 59 3.4 W 7 11 4 6 1017.3 1016.9 0.2
01/05:30pm 11.0 8.0 4.0 62 3.2 W 9 13 5 7 1017.3 1016.9 0.2
01/05:00pm 11.8 8.6 3.3 56 3.9 WSW 9 17 5 9 1017.1 1016.7 0.2
01/04:30pm 13.1 9.2 3.2 51 4.5 WSW 13 20 7 11 1016.8 1016.5 0.2
01/04:00pm 13.1 8.3 2.6 49 4.8 SW 17 22 9 12 1016.7 1016.4 0.2
01/03:30pm 13.8 8.9 4.1 52 4.6 SW 19 26 10 14 1016.7 1016.4 0.2
01/03:00pm 14.0 9.2 4.6 53 4.5 W 19 28 10 15 1016.4 1016.1 0.2
01/02:30pm 13.6 8.5 4.2 53 4.4 WSW 20 33 11 18 1016.2 1015.9 0.0
01/02:00pm 12.4 6.9 3.9 56 3.9 WSW 22 33 12 18 1016.2 1015.9 0.0
01/01:30pm 13.5 8.8 5.9 60 3.7 WSW 20 32 11 17 1016.1 1015.8 0.0
01/01:00pm 13.4 8.5 5.1 57 4.0 WSW 20 35 11 19 1016.0 1015.7 0.0
01/12:30pm 12.8 7.1 5.0 59 3.7 WSW 24 39 13 21 1016.0 1015.7 0.0
01/12:00pm 12.3 5.6 3.5 55 4.0 WSW 28 44 15 24 1016.2 1015.9 0.0
01/11:31am 12.1 5.4 3.9 57 3.8 SW 28 46 15 25 1016.2 1015.9 0.0
01/11:30am 12.2 5.9 3.7 56 3.9 SW 26 46 14 25 1016.2 1015.9 0.0
01/11:04am 12.3 5.9 5.0 61 3.5 WSW 28 46 15 25 1016.2 1015.9 0.0
01/11:00am 12.1 6.0 5.0 62 3.4 WSW 26 44 14 24 1016.2 1015.9 0.0
01/10:31am 11.7 5.6 6.8 72 2.4 SW 28 46 15 25 1016.2 1015.9 0.0
01/10:30am 11.7 5.3 6.8 72 2.4 SW 30 46 16 25 1016.2 1015.9 0.0
01/10:04am 10.9 4.7 6.3 73 2.2 WSW 28 46 15 25 1015.8 1015.4 0.0
01/10:00am 11.4 6.1 6.7 73 2.3 WSW 24 43 13 23 1015.9 1015.6 0.0
01/09:30am 10.5 3.3 7.7 83 1.4 WSW 35 56 19 30 1015.5 1015.1 0.0
01/09:00am 10.3 1.4 6.8 79 1.7 WSW 43 70 23 38 1014.6 1013.7 8.8
01/08:57am 10.2 2.0 6.4 77 1.8 WSW 39 70 21 38 1014.5 1013.5 8.8
01/08:32am 10.0 3.3 7.4 84 1.3 WSW 32 50 17 27 1014.8 1013.9 8.8
01/08:30am 10.0 3.1 7.3 83 1.3 WSW 33 50 18 27 1014.8 1013.9 8.8
01/08:09am 10.0 3.8 6.2 77 1.8 WSW 28 46 15 25 1014.5 1013.5 8.8
01/08:00am 9.9 2.9 6.1 77 1.8 WSW 32 44 17 24 1014.6 1013.7 8.8
01/07:30am 9.5 2.7 5.3 75 2.0 W 30 56 16 30 1014.1 1013.1 8.8
01/07:00am 9.5 0.9 6.4 81 1.5 W 41 67 22 36 1013.4 1012.4 8.8
01/06:30am 8.9 1.9 8.3 96 0.3 W 35 54 19 29 1012.9 1011.9 8.8
01/06:00am 8.9 0.0 7.5 91 0.7 W 44 67 24 36 1012.1 1011.1 8.8
01/05:37am 9.1 1.0 8.5 96 0.3 W 41 59 22 32 1011.9 1010.9 8.8
01/05:30am 9.0 0.3 8.6 97 0.2 W 44 59 24 32 1011.6 1010.6 8.8
01/05:00am 8.8 -0.6 8.7 99 0.1 W 48 69 26 37 1011.2 1010.1 8.8
01/04:30am 8.6 -0.9 8.5 99 0.0 W 48 78 26 42 1010.6 1009.6 8.4
01/04:25am 8.0 -0.8 7.9 99 0.0 W 44 78 24 42 1010.0 1009.0 7.6
01/04:00am 8.8 0.9 8.0 95 0.4 W 39 59 21 32 1010.3 1009.3 4.4
01/03:59am 9.2 1.4 8.4 95 0.4 W 39 59 21 32 1010.5 1009.5 3.8
01/03:58am 9.4 1.7 8.5 94 0.5 W 39 59 21 32 1010.4 1009.4 3.4

Latest Capital City Observations: Canberra | Sydney | Melbourne | Brisbane | Adelaide | Perth | Hobart | Darwin

Other Formats:

Comma delimited format used in spreadsheet applications
http://www.bom.gov.au/fwo/IDS60901/IDS60901.94678.axf

JavaScript Object Notation format (JSON) in row-major order
http://www.bom.gov.au/fwo/IDS60901/IDS60901.94678.json